createdAt,value
2018-06-28T00:01:19.498Z,51.68
2018-06-28T00:03:47.236Z,52.32
2018-06-28T00:06:14.792Z,53.29
2018-06-28T00:08:42.463Z,53.21
2018-06-28T00:11:10.122Z,54.04
2018-06-28T00:13:37.715Z,54.21
2018-06-28T00:16:06.538Z,54.49
2018-06-28T00:18:34.190Z,54.47
2018-06-28T00:21:01.882Z,54.63
2018-06-28T00:23:29.479Z,54.66
2018-06-28T00:25:57.079Z,54.28
2018-06-28T00:28:24.687Z,54.02
2018-06-28T00:30:52.273Z,53.29
2018-06-28T00:33:20.082Z,53.86
2018-06-28T00:35:47.737Z,53.91
2018-06-28T00:38:15.382Z,53.41
2018-06-28T00:40:43.005Z,53.90
2018-06-28T00:43:10.622Z,54.19
2018-06-28T00:45:38.320Z,54.80
2018-06-28T00:48:06.125Z,54.74
2018-06-28T00:50:33.784Z,55.16
2018-06-28T00:53:01.671Z,55.88
2018-06-28T00:55:29.344Z,54.78
2018-06-28T00:57:57.013Z,55.43
2018-06-28T01:00:24.683Z,55.66
2018-06-28T01:02:52.298Z,55.64
2018-06-28T01:05:19.997Z,56.24
2018-06-28T01:07:47.627Z,56.44
2018-06-28T01:10:15.221Z,56.43
2018-06-28T01:12:42.821Z,56.43
2018-06-28T01:15:10.475Z,56.80
2018-06-28T01:17:38.119Z,55.96
2018-06-28T01:20:06.411Z,55.52
2018-06-28T01:22:34.049Z,55.40
2018-06-28T01:25:01.698Z,55.38
2018-06-28T01:27:29.331Z,55.82
2018-06-28T01:29:56.893Z,55.26
2018-06-28T01:32:24.856Z,55.50
2018-06-28T01:34:52.547Z,55.34
2018-06-28T01:37:20.221Z,55.61
2018-06-28T01:39:47.777Z,55.38
2018-06-28T01:43:44.123Z,55.21
2018-06-28T01:46:11.802Z,56.60
2018-06-28T01:48:39.592Z,57.70
2018-06-28T01:51:07.294Z,57.25
2018-06-28T01:53:35.016Z,57.12
2018-06-28T01:56:02.673Z,57.28
2018-06-28T01:58:30.323Z,57.89
2018-06-28T02:00:57.924Z,58.40
2018-06-28T02:03:25.610Z,57.70
2018-06-28T02:05:53.909Z,58.30
2018-06-28T02:08:21.736Z,58.00
2018-06-28T02:10:49.393Z,58.05
2018-06-28T02:13:17.441Z,58.25
2018-06-28T02:15:45.075Z,58.73
2018-06-28T02:18:12.694Z,58.96
2018-06-28T02:20:40.560Z,58.36
2018-06-28T02:23:08.378Z,58.59
2018-06-28T02:25:36.350Z,59.65
2018-06-28T02:28:04.478Z,58.85
2018-06-28T02:30:32.324Z,58.58
2018-06-28T02:33:00.029Z,59.55
2018-06-28T02:35:27.974Z,59.00
2018-06-28T02:37:55.731Z,59.61
2018-06-28T02:40:23.487Z,59.68
2018-06-28T02:42:51.251Z,59.47
2018-06-28T02:45:25.616Z,59.21
2018-06-28T02:47:53.429Z,60.40
2018-06-28T02:50:21.029Z,59.59
2018-06-28T02:52:48.651Z,59.83
2018-06-28T02:55:16.315Z,59.70
2018-06-28T02:57:43.943Z,59.31
2018-06-28T03:00:11.589Z,58.82
2018-06-28T03:02:39.227Z,58.50
2018-06-28T03:05:06.884Z,57.87
2018-06-28T03:07:34.522Z,57.81
2018-06-28T03:10:02.186Z,57.96
2018-06-28T03:12:29.828Z,57.55
2018-06-28T03:14:57.462Z,57.97
2018-06-28T03:17:25.264Z,58.59
2018-06-28T03:19:52.935Z,59.76
2018-06-28T03:22:20.594Z,60.16
2018-06-28T03:24:48.182Z,60.14
2018-06-28T03:27:15.942Z,60.32
2018-06-28T03:29:43.591Z,60.01
2018-06-28T03:32:11.364Z,59.86
2018-06-28T03:34:39.082Z,59.45
2018-06-28T03:37:06.802Z,58.65
2018-06-28T03:39:34.422Z,58.77
2018-06-28T03:42:02.044Z,59.66
2018-06-28T03:44:29.721Z,59.50
2018-06-28T03:46:57.349Z,59.77
2018-06-28T03:49:25.104Z,59.87
2018-06-28T03:51:52.773Z,60.21
2018-06-28T03:54:20.525Z,59.98
2018-06-28T03:56:48.173Z,61.35
2018-06-28T03:59:15.784Z,59.93
2018-06-28T04:01:43.453Z,60.09
2018-06-28T04:04:10.993Z,59.73
2018-06-28T04:06:38.628Z,60.21
2018-06-28T04:09:09.344Z,60.05
2018-06-28T04:11:36.957Z,59.29
2018-06-28T04:14:04.582Z,59.64
2018-06-28T04:16:32.148Z,59.15
2018-06-28T04:18:59.848Z,59.52
2018-06-28T04:21:27.494Z,58.70
2018-06-28T04:23:55.120Z,58.57
2018-06-28T04:26:22.778Z,57.76
2018-06-28T04:28:50.374Z,56.17
2018-06-28T04:31:18.076Z,55.93
2018-06-28T04:33:45.672Z,56.36
2018-06-28T04:36:13.326Z,55.79
2018-06-28T04:38:40.964Z,57.12
2018-06-28T04:41:08.546Z,57.61
2018-06-28T04:43:36.206Z,59.34
2018-06-28T04:46:03.896Z,58.90
2018-06-28T04:48:31.536Z,58.12
2018-06-28T04:50:59.238Z,57.21
2018-06-28T04:53:26.857Z,56.79
2018-06-28T04:55:54.501Z,56.98
2018-06-28T04:58:22.093Z,56.96
2018-06-28T05:00:49.759Z,56.83
2018-06-28T05:03:17.331Z,55.75
2018-06-28T05:05:44.943Z,56.33
2018-06-28T05:08:12.563Z,55.86
2018-06-28T05:10:40.225Z,55.55
2018-06-28T05:13:07.928Z,56.14
2018-06-28T05:15:35.535Z,56.39
2018-06-28T05:18:03.174Z,55.99
2018-06-28T05:20:30.798Z,56.09
2018-06-28T05:22:58.406Z,55.86
2018-06-28T05:25:26.022Z,56.22
2018-06-28T05:27:53.631Z,56.80
2018-06-28T05:30:21.286Z,57.17
2018-06-28T05:32:49.322Z,57.54
2018-06-28T05:35:17.159Z,60.13
2018-06-28T05:37:44.748Z,58.33
2018-06-28T05:40:12.419Z,59.11
2018-06-28T05:42:40.073Z,60.12
2018-06-28T05:45:07.713Z,58.42
2018-06-28T05:47:35.293Z,58.22
2018-06-28T05:50:03.014Z,56.93
2018-06-28T05:52:30.616Z,55.65
2018-06-28T05:54:58.287Z,54.90
2018-06-28T05:57:25.897Z,52.51
2018-06-28T05:59:53.541Z,51.58
2018-06-28T06:02:21.124Z,50.04
2018-06-28T06:04:48.743Z,51.27
2018-06-28T06:07:17.371Z,49.30
2018-06-28T06:09:45.025Z,49.84
2018-06-28T06:12:12.638Z,49.04
2018-06-28T06:14:40.303Z,49.93
2018-06-28T06:17:07.894Z,48.50
2018-06-28T06:19:35.559Z,49.17
2018-06-28T06:22:03.245Z,50.53
2018-06-28T06:24:30.866Z,51.11
2018-06-28T06:26:58.496Z,50.98
2018-06-28T06:29:26.180Z,50.17
2018-06-28T06:31:53.789Z,50.15
2018-06-28T06:34:21.479Z,50.58
2018-06-28T06:36:49.742Z,50.18
2018-06-28T06:39:17.378Z,48.89
2018-06-28T06:41:45.001Z,49.53
2018-06-28T06:44:12.789Z,49.89
2018-06-28T06:46:40.479Z,50.03
2018-06-28T06:49:08.148Z,50.46
2018-06-28T06:51:35.747Z,50.73
2018-06-28T06:54:03.377Z,49.84
2018-06-28T06:56:31.023Z,49.31
2018-06-28T06:58:58.729Z,46.69
2018-06-28T07:01:26.383Z,45.55
2018-06-28T07:03:54.065Z,45.60
2018-06-28T07:06:21.701Z,47.49
2018-06-28T07:08:49.563Z,46.56
2018-06-28T07:11:17.239Z,45.99
2018-06-28T07:13:44.839Z,46.28
2018-06-28T07:16:12.447Z,44.80
2018-06-28T07:18:40.249Z,44.15
2018-06-28T07:21:07.902Z,44.69
2018-06-28T07:23:35.578Z,43.92
2018-06-28T07:26:03.326Z,44.10
2018-06-28T07:28:31.102Z,44.11
2018-06-28T07:30:58.878Z,44.35
2018-06-28T07:33:26.688Z,43.20
2018-06-28T07:35:54.350Z,42.83
2018-06-28T07:38:21.976Z,42.44
2018-06-28T07:40:49.677Z,43.45
2018-06-28T07:43:17.334Z,42.11
2018-06-28T07:45:44.994Z,41.23
2018-06-28T07:48:12.642Z,41.23
2018-06-28T07:50:40.459Z,39.32
2018-06-28T07:53:07.966Z,39.34
2018-06-28T07:55:35.558Z,40.70
2018-06-28T07:58:03.254Z,39.77
2018-06-28T08:00:31.020Z,40.08
2018-06-28T08:02:58.689Z,40.47
2018-06-28T08:05:27.300Z,40.09
2018-06-28T08:07:54.895Z,40.38
2018-06-28T08:10:22.567Z,38.86
2018-06-28T08:12:50.231Z,39.31
2018-06-28T08:15:18.001Z,39.20
2018-06-28T08:17:45.717Z,38.62
2018-06-28T08:20:13.372Z,38.62
2018-06-28T08:22:41.007Z,38.04
2018-06-28T08:25:08.585Z,37.44
2018-06-28T08:27:36.391Z,36.84
2018-06-28T08:30:04.915Z,37.72
2018-06-28T08:32:32.590Z,36.85
2018-06-28T08:35:00.174Z,35.22
2018-06-28T08:37:27.824Z,35.64
2018-06-28T08:39:55.446Z,35.49
2018-06-28T08:42:23.107Z,36.36
2018-06-28T08:44:50.736Z,36.85
2018-06-28T08:47:18.364Z,36.03
2018-06-28T08:49:45.977Z,36.62
2018-06-28T08:52:13.653Z,36.40
2018-06-28T08:54:41.307Z,36.30
2018-06-28T08:57:08.949Z,36.11
2018-06-28T08:59:36.551Z,36.17
2018-06-28T09:02:04.391Z,36.35
2018-06-28T09:04:32.023Z,35.38
2018-06-28T09:06:59.779Z,35.56
2018-06-28T09:09:27.393Z,36.20
2018-06-28T09:11:55.035Z,34.23
2018-06-28T09:14:22.707Z,35.25
2018-06-28T09:16:50.379Z,34.12
2018-06-28T09:19:18.061Z,34.34
2018-06-28T09:21:45.938Z,33.96
2018-06-28T09:24:13.589Z,35.00
2018-06-28T09:26:41.236Z,34.79
2018-06-28T09:29:08.851Z,34.32
2018-06-28T09:31:36.442Z,33.98
2018-06-28T09:34:04.141Z,34.10
2018-06-28T09:36:32.434Z,34.20
2018-06-28T09:39:00.120Z,33.62
2018-06-28T09:41:27.781Z,33.68
2018-06-28T09:43:55.434Z,34.34
2018-06-28T09:46:23.142Z,34.66
2018-06-28T09:48:50.818Z,34.49
2018-06-28T09:51:18.457Z,34.71
2018-06-28T09:53:46.628Z,35.28
2018-06-28T09:56:14.256Z,34.29
2018-06-28T09:58:41.970Z,34.94
2018-06-28T10:01:09.580Z,34.42
2018-06-28T10:03:37.458Z,34.85
2018-06-28T10:06:05.320Z,35.26
2018-06-28T10:08:32.954Z,36.22
2018-06-28T10:11:00.586Z,36.10
2018-06-28T10:13:28.232Z,36.18
2018-06-28T10:15:55.863Z,36.74
2018-06-28T10:18:23.488Z,37.13
2018-06-28T10:20:51.153Z,37.64
2018-06-28T10:23:18.851Z,37.53
2018-06-28T10:25:46.516Z,37.82
2018-06-28T10:28:14.151Z,37.55
2018-06-28T10:30:41.730Z,37.89
2018-06-28T10:33:10.235Z,38.21
2018-06-28T10:35:38.147Z,38.19
2018-06-28T10:38:05.846Z,37.56
2018-06-28T10:40:33.521Z,37.66
2018-06-28T10:43:01.431Z,37.61
2018-06-28T10:45:29.055Z,37.53
2018-06-28T10:47:56.644Z,37.54
2018-06-28T10:50:24.272Z,37.42
2018-06-28T10:52:51.895Z,36.91
2018-06-28T10:55:19.775Z,37.94
2018-06-28T10:57:47.998Z,37.42
2018-06-28T11:00:15.758Z,37.33
2018-06-28T11:02:43.366Z,37.50
2018-06-28T11:05:11.067Z,37.42
2018-06-28T11:07:38.748Z,36.95
2018-06-28T11:10:06.759Z,37.88
2018-06-28T11:12:34.379Z,37.96
2018-06-28T11:15:02.082Z,38.31
2018-06-28T11:17:29.715Z,37.49
2018-06-28T11:19:57.335Z,37.99
2018-06-28T11:22:25.091Z,38.11
2018-06-28T11:24:52.675Z,37.81
2018-06-28T11:27:20.455Z,38.73
2018-06-28T11:29:48.027Z,38.35
2018-06-28T11:32:15.750Z,38.68
2018-06-28T11:34:43.448Z,38.59
2018-06-28T11:37:11.405Z,39.00
2018-06-28T11:39:39.254Z,37.91
2018-06-28T11:42:06.874Z,38.27
2018-06-28T11:44:34.506Z,38.26
2018-06-28T11:47:02.177Z,38.07
2018-06-28T11:49:29.761Z,37.27
2018-06-28T11:51:57.410Z,36.60
2018-06-28T11:54:25.154Z,37.03
2018-06-28T11:56:52.786Z,37.04
2018-06-28T11:59:20.420Z,36.95
2018-06-28T12:01:48.026Z,37.10
2018-06-28T12:04:15.745Z,37.56
2018-06-28T12:06:43.435Z,38.29
2018-06-28T12:09:11.503Z,37.58
2018-06-28T12:11:39.507Z,37.90
2018-06-28T12:14:07.163Z,37.61
2018-06-28T12:16:34.873Z,36.55
2018-06-28T12:19:02.579Z,36.67
2018-06-28T12:21:30.201Z,36.40
2018-06-28T12:23:57.861Z,36.96
2018-06-28T12:26:25.592Z,36.12
2018-06-28T12:28:53.283Z,36.96
2018-06-28T12:31:20.907Z,36.09
2018-06-28T12:33:48.697Z,36.16
2018-06-28T12:36:16.557Z,36.71
2018-06-28T12:38:44.328Z,36.26
2018-06-28T12:41:12.011Z,36.06
2018-06-28T12:43:39.600Z,36.11
2018-06-28T12:46:07.243Z,36.67
2018-06-28T12:48:34.896Z,36.69
2018-06-28T12:51:02.486Z,35.95
2018-06-28T12:53:30.140Z,35.79
2018-06-28T12:56:31.028Z,35.77
2018-06-28T12:59:01.129Z,37.51
2018-06-28T13:01:29.197Z,38.52
2018-06-28T13:03:57.156Z,39.27
2018-06-28T13:06:24.819Z,38.93
2018-06-28T13:08:53.283Z,39.60
2018-06-28T13:11:21.263Z,39.84
2018-06-28T13:13:48.933Z,39.34
2018-06-28T13:16:17.255Z,39.80
2018-06-28T13:18:45.686Z,39.38
2018-06-28T13:21:13.466Z,39.32
2018-06-28T13:23:41.175Z,38.83
2018-06-28T13:26:09.899Z,39.43
2018-06-28T13:28:37.601Z,39.36
2018-06-28T13:31:05.299Z,40.52
2018-06-28T13:33:32.924Z,40.88
2018-06-28T13:36:00.585Z,40.39
2018-06-28T13:38:28.261Z,40.02
2018-06-28T13:40:56.112Z,40.28
2018-06-28T13:43:23.588Z,39.72
2018-06-28T13:45:51.267Z,39.63
2018-06-28T13:48:19.466Z,39.60
2018-06-28T13:50:47.280Z,39.46
2018-06-28T13:53:15.032Z,39.05
2018-06-28T13:55:42.654Z,39.28
2018-06-28T13:58:10.320Z,39.05
2018-06-28T14:00:37.984Z,38.80
2018-06-28T14:03:05.757Z,38.50
2018-06-28T14:05:33.398Z,38.24
2018-06-28T14:08:01.073Z,38.00
2018-06-28T14:10:28.709Z,38.09
2018-06-28T14:12:56.363Z,38.23
2018-06-28T14:15:24.051Z,39.04
2018-06-28T14:17:51.713Z,38.54
2018-06-28T14:20:19.436Z,38.11
2018-06-28T14:22:47.237Z,38.25
2018-06-28T14:25:14.884Z,38.20
2018-06-28T14:27:42.500Z,38.34
2018-06-28T14:30:11.790Z,38.15
2018-06-28T14:32:39.934Z,37.90
2018-06-28T14:35:07.664Z,37.43
2018-06-28T14:37:35.390Z,37.37
2018-06-28T14:40:03.563Z,37.41
2018-06-28T14:42:31.230Z,37.56
2018-06-28T14:44:58.892Z,37.17
2018-06-28T14:47:26.484Z,36.98
2018-06-28T14:49:54.138Z,37.63
2018-06-28T14:52:21.786Z,37.60
2018-06-28T14:54:49.632Z,37.27
2018-06-28T14:57:17.287Z,37.20
2018-06-28T14:59:45.021Z,37.53
2018-06-28T15:02:12.861Z,37.69
2018-06-28T15:04:40.471Z,37.34
2018-06-28T15:07:08.208Z,38.13
2018-06-28T15:09:35.841Z,37.78
2018-06-28T15:12:03.601Z,37.38
2018-06-28T15:14:31.158Z,37.58
2018-06-28T15:16:58.841Z,38.86
2018-06-28T15:19:26.497Z,39.02
2018-06-28T15:21:54.219Z,39.07
2018-06-28T15:24:21.879Z,39.05
2018-06-28T15:26:49.554Z,39.30
2018-06-28T15:29:17.207Z,40.21
2018-06-28T15:31:44.911Z,40.02
2018-06-28T15:34:12.865Z,41.65
2018-06-28T15:36:40.545Z,42.18
2018-06-28T15:39:09.086Z,40.93
2018-06-28T15:41:37.290Z,44.08
2018-06-28T15:44:05.031Z,44.38
2018-06-28T15:46:32.989Z,43.06
2018-06-28T15:49:00.710Z,44.16
2018-06-28T15:51:28.456Z,43.94
2018-06-28T15:53:56.080Z,44.03
2018-06-28T15:56:23.874Z,43.37
2018-06-28T15:58:51.490Z,43.26
2018-06-28T16:01:19.173Z,43.62
2018-06-28T16:03:46.838Z,43.01
2018-06-28T16:06:14.586Z,44.16
2018-06-28T16:08:42.284Z,44.59
2018-06-28T16:11:09.976Z,44.76
2018-06-28T16:13:37.616Z,42.67
2018-06-28T16:16:05.510Z,44.49
2018-06-28T16:18:33.239Z,44.05
2018-06-28T16:21:00.930Z,45.48
2018-06-28T16:23:28.639Z,44.92
2018-06-28T16:25:56.303Z,43.90
2018-06-28T16:28:23.889Z,43.66
2018-06-28T16:30:51.503Z,44.44
2018-06-28T16:33:19.173Z,43.52
2018-06-28T16:35:46.767Z,42.86
2018-06-28T16:38:14.393Z,43.16
2018-06-28T16:40:42.091Z,42.53
2018-06-28T16:43:09.769Z,43.19
2018-06-28T16:45:37.426Z,43.86
2018-06-28T16:48:05.213Z,44.11
2018-06-28T16:50:32.872Z,44.24
2018-06-28T16:53:00.712Z,44.64
2018-06-28T16:55:28.383Z,45.47
2018-06-28T16:57:56.201Z,50.06
2018-06-28T17:00:23.919Z,51.82
2018-06-28T17:02:51.638Z,51.82
2018-06-28T17:05:19.420Z,52.21
2018-06-28T17:07:47.314Z,51.85
2018-06-28T17:10:15.271Z,51.00
2018-06-28T17:12:42.933Z,50.13
2018-06-28T17:15:10.747Z,49.31
2018-06-28T17:17:38.523Z,48.26
2018-06-28T17:20:06.284Z,44.83
2018-06-28T17:22:34.140Z,45.34
2018-06-28T17:25:01.894Z,44.58
2018-06-28T17:27:29.665Z,44.69
2018-06-28T17:29:57.424Z,43.97
2018-06-28T17:32:25.267Z,43.36
2018-06-28T17:34:53.075Z,42.73
2018-06-28T17:37:20.817Z,42.75
2018-06-28T17:39:48.552Z,42.39
2018-06-28T17:42:16.156Z,43.09
2018-06-28T17:44:44.267Z,42.72
2018-06-28T17:47:11.980Z,42.97
2018-06-28T17:49:39.724Z,43.42
2018-06-28T17:52:08.865Z,43.68
2018-06-28T17:54:36.663Z,44.38
2018-06-28T17:57:04.498Z,44.12
2018-06-28T17:59:32.349Z,45.20
2018-06-28T18:02:00.067Z,46.57
2018-06-28T18:04:27.749Z,46.94
2018-06-28T18:06:55.455Z,47.13
2018-06-28T18:09:23.241Z,48.37
2018-06-28T18:11:51.004Z,49.95
2018-06-28T18:14:18.983Z,51.29
2018-06-28T18:16:46.936Z,52.44
2018-06-28T18:19:14.688Z,53.02
2018-06-28T18:21:42.368Z,53.49
2018-06-28T18:24:10.108Z,53.85
2018-06-28T18:26:37.874Z,54.00
2018-06-28T18:29:05.636Z,52.39
2018-06-28T18:31:33.446Z,53.88
2018-06-28T18:34:01.178Z,54.10
2018-06-28T18:36:29.105Z,53.55
2018-06-28T18:38:56.918Z,54.72
2018-06-28T18:41:24.676Z,55.00
2018-06-28T18:43:52.365Z,53.83
2018-06-28T18:46:20.204Z,53.83
2018-06-28T18:48:48.037Z,52.98
2018-06-28T18:51:16.819Z,52.01
2018-06-28T18:53:44.641Z,52.03
2018-06-28T18:56:12.365Z,51.22
2018-06-28T18:58:40.077Z,50.88
2018-06-28T19:01:07.909Z,51.41
2018-06-28T19:03:35.896Z,50.42
2018-06-28T19:06:03.736Z,49.80
2018-06-28T19:08:31.423Z,49.28
2018-06-28T19:10:59.091Z,50.22
2018-06-28T19:13:27.575Z,50.59
2018-06-28T19:16:01.143Z,51.11
2018-06-28T19:18:29.227Z,51.24
2018-06-28T19:21:02.806Z,52.11
2018-06-28T19:23:36.211Z,50.86
2018-06-28T19:26:04.389Z,49.58
2018-06-28T19:28:32.313Z,48.95
2018-06-28T19:31:05.711Z,50.12
2018-06-28T19:33:33.417Z,48.92
2018-06-28T19:36:01.154Z,50.00
2018-06-28T19:38:34.557Z,50.22
2018-06-28T19:41:08.079Z,51.17
2018-06-28T19:43:35.832Z,51.42
2018-06-28T19:46:03.549Z,51.96
2018-06-28T19:48:31.305Z,52.17
2018-06-28T19:51:04.878Z,49.89
2018-06-28T19:53:32.660Z,50.54
2018-06-28T19:56:00.564Z,50.18
2018-06-28T19:58:28.324Z,49.44
2018-06-28T20:01:01.827Z,48.38
2018-06-28T20:03:35.421Z,48.09
2018-06-28T20:06:03.433Z,50.23
2018-06-28T20:08:31.391Z,47.78
2018-06-28T20:10:59.371Z,46.55
2018-06-28T20:13:33.076Z,47.00
2018-06-28T20:16:06.568Z,47.91
2018-06-28T20:18:40.154Z,48.05
2018-06-28T20:21:07.983Z,47.04
2018-06-28T20:23:35.805Z,47.54
2018-06-28T20:26:09.369Z,47.70
2018-06-28T20:28:42.868Z,47.74
2018-06-28T20:31:16.508Z,47.35
2018-06-28T20:33:49.955Z,47.65
2018-06-28T20:36:17.823Z,47.43
2018-06-28T20:38:45.573Z,47.28
2018-06-28T20:41:13.321Z,46.80
2018-06-28T20:43:41.065Z,47.82
2018-06-28T20:46:08.793Z,47.85
2018-06-28T20:48:36.524Z,47.46
2018-06-28T20:51:04.547Z,47.32
2018-06-28T20:53:32.743Z,49.16
2018-06-28T20:56:00.619Z,48.87
2018-06-28T20:58:28.940Z,47.34
2018-06-28T21:00:58.156Z,47.37
2018-06-28T21:03:26.841Z,47.08
2018-06-28T21:05:54.565Z,47.75
2018-06-28T21:08:22.302Z,48.23
2018-06-28T21:10:50.138Z,47.11
2018-06-28T21:13:17.917Z,47.82
2018-06-28T21:15:45.724Z,47.04
2018-06-28T21:18:13.383Z,46.58
2018-06-28T21:20:41.094Z,46.82
2018-06-28T21:23:08.828Z,45.52
2018-06-28T21:25:36.462Z,45.87
2018-06-28T21:28:04.262Z,46.36
2018-06-28T21:30:31.965Z,46.71
2018-06-28T21:32:59.738Z,45.62
2018-06-28T21:35:27.407Z,47.36
2018-06-28T21:37:55.097Z,46.76
2018-06-28T21:40:22.808Z,49.17
2018-06-28T21:42:50.480Z,48.35
2018-06-28T21:45:18.144Z,49.39
2018-06-28T21:47:45.899Z,47.98
2018-06-28T21:50:13.569Z,46.92
2018-06-28T21:52:41.181Z,46.85
2018-06-28T21:55:08.800Z,46.20
2018-06-28T21:57:36.451Z,46.46
2018-06-28T22:00:06.433Z,45.88
2018-06-28T22:02:34.134Z,46.48
2018-06-28T22:05:01.820Z,47.13
2018-06-28T22:07:29.458Z,46.26
2018-06-28T22:09:57.117Z,46.90
2018-06-28T22:12:24.793Z,46.76
2018-06-28T22:14:52.462Z,46.55
2018-06-28T22:17:20.112Z,46.07
2018-06-28T22:19:47.807Z,46.10
2018-06-28T22:22:15.528Z,46.25
2018-06-28T22:24:43.154Z,47.44
2018-06-28T22:27:10.834Z,47.67
2018-06-28T22:29:39.520Z,48.25
2018-06-28T22:32:07.205Z,48.21
2018-06-28T22:34:34.805Z,48.05
2018-06-28T22:37:02.664Z,47.77
2018-06-28T22:39:30.363Z,47.38
2018-06-28T22:41:57.997Z,48.21
2018-06-28T22:44:25.579Z,48.19
2018-06-28T22:46:53.241Z,48.37
2018-06-28T22:49:20.869Z,48.21
2018-06-28T22:51:48.524Z,47.62
2018-06-28T22:54:16.291Z,48.23
2018-06-28T22:56:43.997Z,47.97
2018-06-28T22:59:12.071Z,48.06
2018-06-28T23:01:39.719Z,47.91
2018-06-28T23:04:07.355Z,48.26
2018-06-28T23:06:35.032Z,48.42
2018-06-28T23:09:05.073Z,48.16
2018-06-28T23:11:32.729Z,48.54
2018-06-28T23:14:00.397Z,48.79
2018-06-28T23:16:28.099Z,48.77
2018-06-28T23:18:55.749Z,48.69
2018-06-28T23:21:23.443Z,48.59
2018-06-28T23:23:51.149Z,48.96
2018-06-28T23:26:18.741Z,48.25
2018-06-28T23:28:46.299Z,49.25
2018-06-28T23:31:14.037Z,48.76
2018-06-28T23:33:41.658Z,48.92
2018-06-28T23:36:09.392Z,49.93
2018-06-28T23:38:37.088Z,49.96
2018-06-28T23:41:04.832Z,50.08
2018-06-28T23:43:32.488Z,49.84
2018-06-28T23:46:00.122Z,49.42
2018-06-28T23:48:27.849Z,49.86
2018-06-28T23:50:55.565Z,49.82
2018-06-28T23:53:23.213Z,49.30
2018-06-28T23:55:50.928Z,48.65
2018-06-28T23:58:18.653Z,49.13
